TimePDT,TemperatureF,Dew PointF,Humidity,Sea Level PressureIn,VisibilityMPH,Wind Direction,Wind SpeedMPH,Gust SpeedMPH,PrecipitationIn,Events,Conditions,WindDirDegrees,DateUTC
12:53 AM,48.0,35.1,61,29.88,10.0,Variable,4.6,-,N/A,,Scattered Clouds,0,2013-05-29 07:53:00
1:53 AM,51.1,30.9,46,29.87,10.0,South,18.4,21.9,N/A,,Mostly Cloudy,190,2013-05-29 08:53:00
2:53 AM,50.0,33.1,52,29.84,10.0,SSW,10.4,-,N/A,,Mostly Cloudy,200,2013-05-29 09:53:00
3:53 AM,48.9,35.1,59,29.84,10.0,Variable,4.6,-,0.00,Rain,Light Rain,0,2013-05-29 10:53:00
4:53 AM,46.0,37.0,71,29.83,10.0,South,18.4,23.0,0.00,Rain,Light Rain,190,2013-05-29 11:53:00
5:24 AM,44.6,37.4,76,29.96,9.0,South,8.1,-,0.01,Rain,Light Rain,170,2013-05-29 12:24:00
5:53 AM,44.1,37.9,79,29.85,8.0,South,10.4,-,0.01,Rain,Light Rain,180,2013-05-29 12:53:00
6:03 AM,44.6,37.4,76,29.97,9.0,South,13.8,-,0.00,Rain,Light Rain,180,2013-05-29 13:03:00
6:48 AM,44.6,37.4,76,29.96,10.0,South,10.4,19.6,0.00,,Overcast,170,2013-05-29 13:48:00
6:53 AM,45.0,37.0,74,29.84,10.0,SSE,12.7,21.9,0.00,,Overcast,160,2013-05-29 13:53:00
7:14 AM,46.4,39.2,76,29.95,10.0,SSE,10.4,-,N/A,,Mostly Cloudy,160,2013-05-29 14:14:00
7:53 AM,50.0,41.0,71,29.84,10.0,SSE,6.9,-,N/A,,Mostly Cloudy,150,2013-05-29 14:53:00
8:53 AM,53.1,39.0,59,29.87,10.0,South,8.1,-,N/A,,Mostly Cloudy,180,2013-05-29 15:53:00
9:53 AM,54.0,35.1,49,29.87,10.0,South,11.5,21.9,N/A,,Partly Cloudy,190,2013-05-29 16:53:00
10:53 AM,55.9,33.1,42,29.86,10.0,SSW,15.0,24.2,N/A,,Clear,200,2013-05-29 17:53:00
11:53 AM,57.9,34.0,41,29.87,10.0,South,10.4,24.2,N/A,,Clear,190,2013-05-29 18:53:00
12:53 PM,61.0,32.0,34,29.86,10.0,SSW,9.2,-,N/A,,Clear,200,2013-05-29 19:53:00
1:53 PM,62.1,30.9,31,29.84,10.0,Variable,3.5,-,N/A,,Partly Cloudy,0,2013-05-29 20:53:00
2:53 PM,63.0,30.0,29,29.85,10.0,Variable,5.8,-,N/A,,Clear,0,2013-05-29 21:53:00
3:53 PM,62.1,30.9,31,29.86,10.0,SSW,8.1,-,N/A,,Partly Cloudy,210,2013-05-29 22:53:00
4:53 PM,63.0,32.0,31,29.86,10.0,SW,8.1,-,N/A,,Clear,220,2013-05-29 23:53:00
5:53 PM,61.0,30.9,32,29.87,10.0,Variable,6.9,-,N/A,,Clear,0,2013-05-30 00:53:00
6:53 PM,57.9,36.0,44,29.88,10.0,South,5.8,-,N/A,,Clear,190,2013-05-30 01:53:00
7:53 PM,54.0,37.9,55,29.90,10.0,SW,3.5,-,N/A,,Clear,220,2013-05-30 02:53:00
8:53 PM,51.1,39.9,66,29.92,10.0,South,3.5,-,N/A,,Clear,180,2013-05-30 03:53:00
9:53 PM,48.0,39.0,71,29.94,10.0,SSW,4.6,-,N/A,,Clear,210,2013-05-30 04:53:00
10:53 PM,46.0,39.0,76,29.94,10.0,Calm,Calm,-,N/A,,Clear,0,2013-05-30 05:53:00
11:53 PM,43.0,37.0,80,29.96,10.0,Calm,Calm,-,N/A,,Clear,0,2013-05-30 06:53:00